Stations météo

réclame
Mon MeteoGroup
Norrkoping/Kungsangen, Suède (2571): Température de l'air & dewpoint: 14.11.2018 13:00:00 - 20.11.2018 13:00:00 (CET)Norrkoping/Kungsangen, Suède (2571): Vitesse du vent: 14.11.2018 13:00:00 - 20.11.2018 13:00:00 (CET)Norrkoping/Kungsangen, Suède (2571): Direction du vent: 14.11.2018 13:00:00 - 20.11.2018 13:00:00 (CET)Norrkoping/Kungsangen, Suède (2571): visibility: 14.11.2018 13:00:00 - 20.11.2018 13:00:00 (CET)
Date & Time tt [°C] td [°C] ff [km/h] ff [knt] dd vv [km]
20.11.2018 13:00:00 2,0 1,0 5 3 - 10
20.11.2018 12:00:00 2,0 1,0 8 4 NNE 10
20.11.2018 11:00:00 2,0 1,0 9 5 NNE 10
20.11.2018 10:00:00 2,0 1,0 8 4 N 10
20.11.2018 09:00:00 1,0 1,0 8 4 NNE 10
20.11.2018 08:00:00 1,0 1,0 8 4 NE 8
20.11.2018 07:00:00 1,0 1,0 5 3 - 10
20.11.2018 06:00:00 1,0 1,0 13 7 NE 10
20.11.2018 05:00:00 1,0 0,0 8 4 NE 10
20.11.2018 04:00:00 1,0 0,0 11 6 NE 10
20.11.2018 03:00:00 1,0 1,0 13 7 NE 10
20.11.2018 02:00:00 2,0 1,0 13 7 NE 10
20.11.2018 01:00:00 2,0 1,0 13 7 NNE 10
20.11.2018 00:00:00 2,0 1,0 13 7 NE 10
19.11.2018 23:00:00 2,0 0,0 13 7 NE 10
19.11.2018 22:00:00 2,0 0,0 13 7 NE 10
19.11.2018 21:00:00 2,0 0,0 16 9 NE 10
19.11.2018 20:00:00 2,0 0,0 13 7 NE 10
19.11.2018 19:00:00 3,0 0,0 16 9 NE 10
19.11.2018 18:00:00 3,0 0,0 18 10 NE 10
19.11.2018 17:00:00 3,0 0,0 16 9 NE 10
19.11.2018 16:00:00 3,0 0,0 16 9 NE 10
19.11.2018 15:00:00 3,0 0,0 16 9 NE 10
19.11.2018 14:00:00 3,0 0,0 15 8 NE 10
19.11.2018 13:00:00 3,0 0,0 18 10 NE 10
19.11.2018 12:00:00 3,0 0,0 18 10 NNE 10
19.11.2018 11:00:00 3,0 0,0 18 10 NE 10
19.11.2018 10:00:00 3,0 0,0 18 10 NE 10
19.11.2018 09:00:00 2,0 0,0 21 11 NNE 10
19.11.2018 08:00:00 2,0 0,0 21 11 NE 10
19.11.2018 07:00:00 3,0 0,0 18 10 NE 10
19.11.2018 06:00:00 3,0 0,0 18 10 NNE 10
19.11.2018 05:00:00 3,0 1,0 16 9 N 10
19.11.2018 04:00:00 3,0 0,0 15 8 NNE 10
19.11.2018 03:00:00 3,0 0,0 13 7 NNE 10
19.11.2018 02:00:00 4,0 0,0 11 6 NNE 10
19.11.2018 01:00:00 4,0 0,0 11 6 NNE 10
19.11.2018 00:00:00 4,0 0,0 16 9 NE 10
18.11.2018 23:00:00 4,0 0,0 13 7 NE 10
18.11.2018 22:00:00 4,0 0,0 18 10 NE 10
18.11.2018 21:00:00 4,0 1,0 21 11 NE 10
18.11.2018 20:00:00 5,0 1,0 21 11 NNE 10
18.11.2018 19:00:00 5,0 1,0 21 11 NNE 10
18.11.2018 18:00:00 5,0 1,0 24 13 NNE 10
18.11.2018 17:00:00 6,0 2,0 16 9 N 10
18.11.2018 16:00:00 6,0 3,0 18 10 NNE 10
18.11.2018 15:00:00 6,0 3,0 18 10 NNE 10
18.11.2018 14:00:00 6,0 3,0 16 9 NNE 10
18.11.2018 13:00:00 6,0 3,0 18 10 NNE 10
18.11.2018 12:00:00 6,0 3,0 16 9 N 10
18.11.2018 11:00:00 6,0 3,0 16 9 NNE 10
18.11.2018 10:00:00 5,0 3,0 15 8 NE 10
18.11.2018 09:00:00 4,0 3,0 11 6 NNE 10
18.11.2018 08:00:00 4,0 2,0 9 5 NNE 10
18.11.2018 07:00:00 4,0 2,0 13 7 NE 10
18.11.2018 06:00:00 4,0 2,0 18 10 NNE 10
18.11.2018 05:00:00 3,0 2,0 16 9 N 10
18.11.2018 04:00:00 3,0 2,0 15 8 NNW 10
18.11.2018 03:00:00 4,0 3,0 13 7 N 10
18.11.2018 02:00:00 5,0 3,0 13 7 N 10
18.11.2018 01:00:00 4,0 4,0 13 7 NNW 10
18.11.2018 00:00:00 3,0 3,0 8 4 WNW 2,8
17.11.2018 23:00:00 3,0 3,0 9 5 W 10
17.11.2018 22:00:00 4,0 4,0 13 7 WNW 10
17.11.2018 21:00:00 5,0 4,0 13 7 WNW 10
17.11.2018 20:00:00 5,0 4,0 13 7 WNW 10
17.11.2018 19:00:00 6,0 4,0 13 7 WNW 10
17.11.2018 18:00:00 6,0 5,0 13 7 WNW 10
17.11.2018 17:00:00 7,0 6,0 13 7 W 10
17.11.2018 16:00:00 7,0 6,0 11 6 WNW 10
17.11.2018 15:00:00 7,0 5,0 15 8 W 10
17.11.2018 14:00:00 7,0 5,0 13 7 W 10
17.11.2018 13:00:00 7,0 5,0 13 7 W 10
17.11.2018 12:00:00 7,0 5,0 16 9 WSW 10
17.11.2018 11:00:00 6,0 5,0 11 6 W 10
17.11.2018 10:00:00 6,0 5,0 11 6 WSW 10
17.11.2018 09:00:00 5,0 4,0 9 5 WSW 10
17.11.2018 08:00:00 4,0 3,0 9 5 W 10
17.11.2018 07:00:00 3,0 3,0 15 8 WSW 10
17.11.2018 06:00:00 2,0 2,0 9 5 WSW 10
17.11.2018 05:00:00 3,0 2,0 8 4 WSW 10
17.11.2018 04:00:00 3,0 2,0 2 1 - 10
17.11.2018 03:00:00 2,0 2,0 9 5 W 10
17.11.2018 02:00:00 2,0 2,0 4 2 SSW 9
17.11.2018 01:00:00 2,0 2,0 0 0 N 2,1
17.11.2018 00:00:00 1,0 1,0 4 2 S 7
16.11.2018 23:00:00 3,0 3,0 4 2 - 10
16.11.2018 22:00:00 1,0 1,0 5 3 SE 10
16.11.2018 21:00:00 4,0 3,0 4 2 SSE 10
16.11.2018 20:00:00 5,0 4,0 11 6 SSW 10
16.11.2018 19:00:00 6,0 4,0 11 6 SSW 10
16.11.2018 18:00:00 6,0 4,0 8 4 S 10
16.11.2018 17:00:00 7,0 4,0 8 4 SSW 10
16.11.2018 16:00:00 8,0 4,0 8 4 SSW 10
16.11.2018 15:00:00 9,0 5,0 8 4 SSW 10
16.11.2018 14:00:00 9,0 5,0 11 6 SW 10
16.11.2018 13:00:00 9,0 5,0 13 7 SW 10
16.11.2018 12:00:00 8,0 5,0 9 5 SSW 10
16.11.2018 11:00:00 8,0 5,0 9 5 SW 10
16.11.2018 10:00:00 8,0 5,0 9 5 SW 10
16.11.2018 09:00:00 7,0 5,0 9 5 SW 10
16.11.2018 08:00:00 8,0 5,0 9 5 SW 10
16.11.2018 07:00:00 8,0 6,0 8 4 SW 10
16.11.2018 06:00:00 8,0 7,0 11 6 SW 10
16.11.2018 05:00:00 9,0 7,0 11 6 SSW 10
16.11.2018 04:00:00 9,0 7,0 5 3 - 10
16.11.2018 03:00:00 9,0 7,0 5 3 - 10
16.11.2018 02:00:00 10,0 8,0 5 3 SW 10
16.11.2018 01:00:00 10,0 8,0 13 7 SW 10
16.11.2018 00:00:00 10,0 8,0 9 5 SW 10
15.11.2018 23:00:00 10,0 8,0 9 5 SW 10
15.11.2018 22:00:00 10,0 8,0 11 6 SW 10
15.11.2018 21:00:00 10,0 8,0 13 7 SW 10
15.11.2018 20:00:00 10,0 8,0 11 6 SW 10
15.11.2018 19:00:00 10,0 8,0 9 5 SW 10
15.11.2018 18:00:00 10,0 8,0 9 5 SSW 10
15.11.2018 17:00:00 10,0 8,0 9 5 S 10
15.11.2018 16:00:00 10,0 8,0 11 6 SW 10
15.11.2018 15:00:00 10,0 9,0 11 6 SSW 9
15.11.2018 14:00:00 10,0 9,0 9 5 SW 10
15.11.2018 13:00:00 10,0 8,0 11 6 SW 10
15.11.2018 12:00:00 10,0 8,0 9 5 SW 10
15.11.2018 11:00:00 9,0 8,0 9 5 SW 10
15.11.2018 10:00:00 9,0 8,0 13 7 SW 10
15.11.2018 09:00:00 5,0 5,0 8 4 SW 10
15.11.2018 08:00:00 4,0 4,0 4 2 NNW 8
15.11.2018 07:00:00 4,0 4,0 5 3 - 8
15.11.2018 06:00:00 3,0 3,0 0 0 N 8
15.11.2018 05:00:00 3,0 3,0 8 4 E 2,8
15.11.2018 04:00:00 3,0 3,0 4 2 E 0,2
15.11.2018 03:00:00 2,0 2,0 8 4 ESE 0,6
15.11.2018 02:00:00 2,0 2,0 4 2 SSE 1,4
15.11.2018 01:00:00 2,0 2,0 5 3 E 0,9
15.11.2018 00:00:00 5,0 4,0 5 3 SSW 10
14.11.2018 23:00:00 6,0 5,0 4 2 - 10
14.11.2018 22:00:00 6,0 5,0 2 1 - 10
14.11.2018 21:00:00 7,0 5,0 8 4 SSW 10
14.11.2018 20:00:00 6,0 5,0 5 3 SW 10
14.11.2018 19:00:00 6,0 5,0 5 3 WSW 10
14.11.2018 18:00:00 7,0 6,0 9 5 WSW 10
14.11.2018 17:00:00 8,0 6,0 13 7 WSW 10
14.11.2018 16:00:00 8,0 6,0 9 5 SW 10
14.11.2018 15:00:00 9,0 6,0 13 7 W 10
14.11.2018 14:00:00 9,0 6,0 15 8 W 10
14.11.2018 13:00:00 9,0 6,0 15 8 WSW 10

tt = Température de l'air
td = dewpoint
ff = Vitesse du vent
dd = Direction du vent
vv = visibility

stations d'obs. à proximité